»·PEaware :: N779CT KBLI-KAWO

N779CT :: KBLI-KAWO

FLIGHT INFORMATION

Flight Status: Arrived
Operator: Privately registered:
United States
More flights under this callsign
Pilot: Christoph Z. (37728)
Aircraft: CIRRUS SR-22 TURBO
(S22T)
More flights by this aircraft type
Origin: KBLI Bellingham Intl
United States
Destination: KAWO Arlington Mun
United States
More flights between these airports :: More routes between these airports
Route: KIENO6 CVV V287 PAE
File this flight plan on PilotEdge
Remarks:
Altitude:
(Current/Filed)
5,000ft
Speed:
(Current/Filed)
165kts
Departed: 15-Nov-23 09:40 PM
Arrived: 15-Nov-23 10:15 PM
Distance/Time
Traveled:
40nm/0:35
Distance/Time
To Go:
Arrived

Flight Plot

Page will automatically refresh every two minutes.

Flight plan parsing failed; only flown route is shown


Map Options




Map Legend


Flown Route
Filed Route
Departure Airport
Arrival Airport
Navaid (VOR, NDB)
Fix

Horizontal Profiles

Position Reports

Time Latitude Longitude Heading Altitude Ground
Speed
15-Nov-23 21:11 48.801781 -122.536260 275 147ft 0kts
15-Nov-23 21:12 48.801781 -122.536260 275 147ft 0kts
15-Nov-23 21:13 48.801781 -122.536260 275 147ft 0kts
15-Nov-23 21:14 48.801781 -122.536260 275 147ft 0kts
15-Nov-23 21:15 48.801781 -122.536260 275 147ft 0kts
15-Nov-23 21:16 48.801781 -122.536260 275 147ft 0kts
15-Nov-23 21:17 48.801781 -122.536260 275 147ft 0kts
15-Nov-23 21:18 48.801781 -122.536260 275 147ft 0kts
15-Nov-23 21:22 48.799283 -122.534672 161 152ft 0kts
15-Nov-23 21:23 48.799283 -122.534672 161 152ft 0kts
15-Nov-23 21:24 48.799283 -122.534672 161 152ft 0kts
15-Nov-23 21:25 48.799283 -122.534672 161 152ft 0kts
15-Nov-23 21:26 48.799283 -122.534672 161 152ft 0kts
15-Nov-23 21:27 48.799283 -122.534672 161 152ft 0kts
15-Nov-23 21:28 48.799283 -122.534672 161 152ft 0kts
15-Nov-23 21:29 48.799283 -122.534672 161 152ft 0kts
15-Nov-23 21:30 48.799283 -122.534672 161 152ft 0kts
15-Nov-23 21:31 48.799283 -122.534672 161 152ft 0kts
15-Nov-23 21:32 48.799941 -122.535888 1 152ft 16kts
15-Nov-23 21:33 48.801772 -122.536294 269 147ft 0kts
15-Nov-23 21:34 48.801772 -122.536294 269 147ft 0kts
15-Nov-23 21:35 48.801772 -122.536294 269 147ft 0kts
15-Nov-23 21:36 48.801772 -122.536294 269 147ft 0kts
15-Nov-23 21:37 48.801772 -122.536294 269 147ft 0kts
15-Nov-23 21:38 48.801358 -122.537521 183 148ft 8kts
15-Nov-23 21:39 48.779676 -122.537714 179 990ft 114kts
15-Nov-23 21:40 48.746212 -122.552405 203 2383ft 136kts
15-Nov-23 21:41 48.710451 -122.577571 198 3859ft 138kts
15-Nov-23 21:42 48.669722 -122.579274 180 4877ft 168kts
15-Nov-23 21:43 48.621965 -122.593390 194 4794ft 175kts
15-Nov-23 21:44 48.575748 -122.609492 193 4809ft 169kts
15-Nov-23 21:45 48.529582 -122.625606 193 4303ft 167kts
15-Nov-23 21:46 48.484486 -122.641323 192 3846ft 163kts
15-Nov-23 21:47 48.441575 -122.656239 193 3837ft 156kts
15-Nov-23 21:48 48.399208 -122.670958 192 3815ft 155kts
15-Nov-23 21:49 48.357270 -122.685501 193 3814ft 155kts
15-Nov-23 21:50 48.315243 -122.700047 192 3819ft 155kts
15-Nov-23 21:51 48.272921 -122.714673 192 3818ft 155kts
15-Nov-23 21:52 48.233582 -122.707887 138 3824ft 150kts
15-Nov-23 21:53 48.201968 -122.665250 135 3813ft 153kts
15-Nov-23 21:54 48.170872 -122.622282 135 3822ft 153kts
15-Nov-23 21:55 48.139432 -122.578874 135 3815ft 153kts
15-Nov-23 21:56 48.108105 -122.535717 135 3820ft 153kts
15-Nov-23 21:57 48.076703 -122.492525 135 3815ft 152kts
15-Nov-23 21:58 48.045407 -122.449541 135 3824ft 153kts
15-Nov-23 21:59 48.013990 -122.406462 135 3816ft 153kts
15-Nov-23 22:00 47.982585 -122.363479 135 3819ft 153kts
15-Nov-23 22:01 47.951053 -122.320406 135 3813ft 153kts
15-Nov-23 22:02 47.921877 -122.275298 136 3823ft 150kts
15-Nov-23 22:03 47.893961 -122.237622 136 3153ft 122kts
15-Nov-23 22:04 47.902478 -122.203474 23 2859ft 109kts
15-Nov-23 22:05 47.932410 -122.182583 24 2852ft 123kts
15-Nov-23 22:06 47.962346 -122.161375 24 2849ft 113kts
15-Nov-23 22:07 47.992152 -122.152293 359 2833ft 103kts
15-Nov-23 22:08 48.018592 -122.152995 359 2744ft 96kts
15-Nov-23 22:09 48.045862 -122.153632 359 2285ft 100kts
15-Nov-23 22:10 48.074054 -122.154285 359 1732ft 101kts
15-Nov-23 22:11 48.102095 -122.154939 359 1190ft 100kts
15-Nov-23 22:12 48.129636 -122.155587 359 651ft 97kts
15-Nov-23 22:13 48.156134 -122.156198 0 150ft 87kts
15-Nov-23 22:14 48.169330 -122.155981 44 134ft 16kts
15-Nov-23 22:15 48.170085 -122.153440 208 137ft 0kts
15-Nov-23 22:16 48.170085 -122.153440 208 137ft 0kts

Navigation Log

Ident Type
Flight plan parsing failed, navigation log unavailable